createdAt,value
2018-02-18T00:02:00.325Z,11.87
2018-02-18T00:04:28.699Z,13.30
2018-02-18T00:06:57.393Z,10.37
2018-02-18T00:09:25.783Z,11.50
2018-02-18T00:11:54.144Z,10.83
2018-02-18T00:14:28.149Z,12.47
2018-02-18T00:16:56.523Z,10.77
2018-02-18T00:19:24.888Z,10.03
2018-02-18T00:21:53.676Z,11.13
2018-02-18T00:24:22.427Z,10.87
2018-02-18T00:26:50.794Z,10.40
2018-02-18T00:29:19.162Z,11.17
2018-02-18T00:31:47.535Z,12.20
2018-02-18T00:34:15.893Z,15.13
2018-02-18T00:36:44.286Z,12.03
2018-02-18T00:39:12.671Z,11.10
2018-02-18T00:41:41.037Z,9.90
2018-02-18T00:44:09.395Z,11.87
2018-02-18T00:46:37.780Z,11.37
2018-02-18T00:49:06.154Z,10.50
2018-02-18T00:51:34.543Z,10.93
2018-02-18T00:54:02.912Z,10.30
2018-02-18T00:56:31.325Z,11.40
2018-02-18T00:58:59.712Z,12.30
2018-02-18T01:01:28.080Z,11.47
2018-02-18T01:03:56.445Z,11.93
2018-02-18T01:06:24.828Z,10.70
2018-02-18T01:08:53.191Z,13.50
2018-02-18T01:11:21.556Z,10.40
2018-02-18T01:13:49.920Z,11.57
2018-02-18T01:16:18.687Z,11.27
2018-02-18T01:18:47.051Z,11.83
2018-02-18T01:21:15.420Z,10.93
2018-02-18T01:23:43.794Z,11.53
2018-02-18T01:26:12.150Z,9.93
2018-02-18T01:28:40.517Z,11.03
2018-02-18T01:31:08.908Z,10.10
2018-02-18T01:33:37.259Z,10.87
2018-02-18T01:36:06.021Z,10.77
2018-02-18T01:38:34.385Z,10.90
2018-02-18T01:41:02.760Z,10.63
2018-02-18T01:43:31.130Z,11.27
2018-02-18T01:45:59.496Z,11.50
2018-02-18T01:48:27.848Z,9.47
2018-02-18T01:50:56.646Z,10.30
2018-02-18T01:53:25.552Z,9.37
2018-02-18T01:55:53.972Z,10.97
2018-02-18T01:58:22.328Z,10.17
2018-02-18T02:00:50.688Z,10.10
2018-02-18T02:03:19.053Z,10.73
2018-02-18T02:05:47.439Z,10.33
2018-02-18T02:08:15.813Z,9.70
2018-02-18T02:10:44.197Z,9.20
2018-02-18T02:13:12.562Z,9.30
2018-02-18T02:15:41.330Z,9.67
2018-02-18T02:18:09.682Z,10.20
2018-02-18T02:20:38.066Z,9.53
2018-02-18T02:23:06.433Z,9.03
2018-02-18T02:25:34.811Z,8.50
2018-02-18T02:28:03.192Z,8.30
2018-02-18T02:30:31.565Z,7.80
2018-02-18T02:32:59.931Z,8.73
2018-02-18T02:35:28.292Z,7.70
2018-02-18T02:37:56.649Z,7.90
2018-02-18T02:40:25.435Z,9.20
2018-02-18T02:42:54.186Z,8.20
2018-02-18T02:45:22.561Z,8.50
2018-02-18T02:47:50.920Z,9.27
2018-02-18T02:50:19.284Z,8.50
2018-02-18T02:52:47.650Z,8.30
2018-02-18T02:55:16.017Z,8.40
2018-02-18T02:57:44.776Z,8.30
2018-02-18T03:00:13.146Z,7.97
2018-02-18T03:02:41.508Z,8.77
2018-02-18T03:05:09.896Z,8.53
2018-02-18T03:07:38.283Z,8.57
2018-02-18T03:10:06.653Z,7.90
2018-02-18T03:12:35.266Z,7.60
2018-02-18T03:15:03.620Z,6.67
2018-02-18T03:17:31.974Z,8.03
2018-02-18T03:20:00.340Z,8.27
2018-02-18T03:22:28.692Z,7.07
2018-02-18T03:24:57.447Z,7.13
2018-02-18T03:27:25.833Z,7.60
2018-02-18T03:29:54.188Z,8.47
2018-02-18T03:32:22.540Z,7.37
2018-02-18T03:34:50.897Z,7.97
2018-02-18T03:37:19.721Z,8.70
2018-02-18T03:39:48.105Z,8.40
2018-02-18T03:42:16.452Z,9.03
2018-02-18T03:44:45.213Z,8.80
2018-02-18T03:47:13.578Z,7.90
2018-02-18T03:49:41.927Z,8.47
2018-02-18T03:52:10.294Z,8.63
2018-02-18T03:54:38.647Z,7.97
2018-02-18T03:57:07.407Z,8.43
2018-02-18T03:59:35.763Z,8.67
2018-02-18T04:02:04.133Z,7.93
2018-02-18T04:04:32.498Z,8.80
2018-02-18T04:07:00.861Z,7.07
2018-02-18T04:09:29.212Z,7.83
2018-02-18T04:11:57.991Z,8.70
2018-02-18T04:14:26.354Z,7.90
2018-02-18T04:16:54.733Z,7.73
2018-02-18T04:19:23.079Z,8.00
2018-02-18T04:21:51.440Z,6.67
2018-02-18T04:24:20.184Z,7.30
2018-02-18T04:26:48.556Z,7.20
2018-02-18T04:29:17.538Z,7.70
2018-02-18T04:31:45.901Z,7.90
2018-02-18T04:34:14.276Z,7.70
2018-02-18T04:36:42.636Z,7.07
2018-02-18T04:39:11.000Z,6.63
2018-02-18T04:41:39.758Z,6.63
2018-02-18T04:44:08.106Z,7.00
2018-02-18T04:46:36.494Z,7.90
2018-02-18T04:49:04.886Z,6.67
2018-02-18T04:51:33.260Z,6.83
2018-02-18T04:54:01.635Z,6.93
2018-02-18T04:56:30.113Z,7.50
2018-02-18T04:58:58.456Z,7.97
2018-02-18T05:01:26.809Z,7.00
2018-02-18T05:03:55.208Z,7.60
2018-02-18T05:06:24.398Z,7.43
2018-02-18T05:08:53.252Z,6.30
2018-02-18T05:11:21.627Z,7.17
2018-02-18T05:13:50.010Z,6.37
2018-02-18T05:16:18.380Z,7.40
2018-02-18T05:18:46.755Z,7.70
2018-02-18T05:21:15.116Z,6.60
2018-02-18T05:23:43.464Z,7.70
2018-02-18T05:26:12.239Z,7.00
2018-02-18T05:28:41.092Z,6.83
2018-02-18T05:31:09.435Z,7.13
2018-02-18T05:33:37.788Z,6.20
2018-02-18T05:36:06.580Z,6.20
2018-02-18T05:38:35.347Z,6.43
2018-02-18T05:41:03.708Z,6.67
2018-02-18T05:43:32.084Z,4.80
2018-02-18T05:46:00.947Z,5.70
2018-02-18T05:48:29.292Z,4.73
2018-02-18T05:50:58.064Z,3.80
2018-02-18T05:53:26.437Z,3.80
2018-02-18T05:55:54.804Z,3.30
2018-02-18T05:58:23.161Z,3.00
2018-02-18T06:00:51.534Z,2.70
2018-02-18T06:03:19.894Z,2.77
2018-02-18T06:05:48.243Z,2.73
2018-02-18T06:08:16.629Z,2.07
2018-02-18T06:10:45.368Z,2.10
2018-02-18T06:13:13.728Z,1.97
2018-02-18T06:15:42.076Z,2.30
2018-02-18T06:18:10.853Z,2.20
2018-02-18T06:20:40.168Z,2.67
2018-02-18T06:23:08.907Z,2.30
2018-02-18T06:25:37.289Z,2.50
2018-02-18T06:28:05.691Z,2.53
2018-02-18T06:30:34.050Z,2.50
2018-02-18T06:33:02.411Z,2.53
2018-02-18T06:35:30.765Z,2.77
2018-02-18T06:37:59.109Z,3.13
2018-02-18T06:40:27.476Z,3.20
2018-02-18T06:42:55.823Z,2.50
2018-02-18T06:45:24.180Z,3.00
2018-02-18T06:47:52.549Z,2.57
2018-02-18T06:50:20.900Z,3.00
2018-02-18T06:52:49.280Z,3.40
2018-02-18T06:55:17.627Z,2.80
2018-02-18T06:57:45.977Z,3.63
2018-02-18T07:00:14.329Z,2.80
2018-02-18T07:02:43.072Z,2.90
2018-02-18T07:05:11.427Z,3.43
2018-02-18T07:07:39.772Z,2.80
2018-02-18T07:10:08.554Z,2.30
2018-02-18T07:12:37.383Z,3.67
2018-02-18T07:15:05.739Z,3.17
2018-02-18T07:17:34.096Z,2.57
2018-02-18T07:20:02.867Z,2.80
2018-02-18T07:22:31.246Z,5.70
2018-02-18T07:24:59.628Z,2.90
2018-02-18T07:27:27.979Z,4.20
2018-02-18T07:29:56.353Z,4.73
2018-02-18T07:32:24.722Z,2.20
2018-02-18T07:34:53.093Z,2.40
2018-02-18T07:37:21.499Z,2.40
2018-02-18T07:39:49.822Z,1.83
2018-02-18T07:42:18.580Z,2.20
2018-02-18T07:44:46.952Z,2.00
2018-02-18T07:47:15.303Z,1.90
2018-02-18T07:49:43.677Z,2.20
2018-02-18T07:52:12.060Z,3.17
2018-02-18T07:54:40.424Z,2.53
2018-02-18T07:57:08.805Z,4.10
2018-02-18T07:59:37.159Z,6.50
2018-02-18T08:02:05.956Z,7.40
2018-02-18T08:04:34.743Z,6.90
2018-02-18T08:07:03.123Z,6.20
2018-02-18T08:09:31.886Z,5.17
2018-02-18T08:12:00.252Z,2.60
2018-02-18T08:14:28.611Z,3.30
2018-02-18T08:16:56.977Z,5.63
2018-02-18T08:19:25.347Z,5.40
2018-02-18T08:21:53.719Z,5.30
2018-02-18T08:24:22.107Z,4.40
2018-02-18T08:26:50.617Z,4.10
2018-02-18T08:29:19.396Z,6.30
2018-02-18T08:31:47.781Z,4.70
2018-02-18T08:34:16.140Z,2.60
2018-02-18T08:36:44.532Z,5.47
2018-02-18T08:39:12.880Z,3.50
2018-02-18T08:41:41.288Z,3.43
2018-02-18T08:44:09.644Z,3.00
2018-02-18T08:46:38.004Z,4.70
2018-02-18T08:49:06.766Z,3.43
2018-02-18T08:51:35.144Z,3.93
2018-02-18T08:54:03.514Z,4.67
2018-02-18T08:56:31.888Z,4.40
2018-02-18T08:59:00.255Z,6.07
2018-02-18T09:01:28.617Z,4.23
2018-02-18T09:03:57.000Z,5.47
2018-02-18T09:06:25.414Z,4.80
2018-02-18T09:08:53.775Z,3.60
2018-02-18T09:11:22.158Z,3.77
2018-02-18T09:13:50.521Z,3.30
2018-02-18T09:16:18.884Z,2.70
2018-02-18T09:18:47.257Z,5.10
2018-02-18T09:21:15.627Z,5.80
2018-02-18T09:23:43.985Z,1.90
2018-02-18T09:26:12.746Z,5.10
2018-02-18T09:28:41.126Z,6.23
2018-02-18T09:31:09.507Z,3.63
2018-02-18T09:33:37.897Z,6.00
2018-02-18T09:36:06.275Z,3.00
2018-02-18T09:38:34.654Z,6.20
2018-02-18T09:41:03.455Z,4.77
2018-02-18T09:43:32.217Z,2.77
2018-02-18T09:46:00.621Z,3.03
2018-02-18T09:48:29.419Z,2.80
2018-02-18T09:50:58.201Z,3.00
2018-02-18T09:53:26.964Z,4.63
2018-02-18T09:55:55.353Z,5.83
2018-02-18T09:58:23.721Z,3.20
2018-02-18T10:00:52.093Z,5.30
2018-02-18T10:03:20.484Z,5.50
2018-02-18T10:05:48.888Z,3.40
2018-02-18T10:08:17.645Z,4.00
2018-02-18T10:10:46.013Z,4.00
2018-02-18T10:13:14.377Z,2.60
2018-02-18T10:15:42.765Z,5.30
2018-02-18T10:18:11.141Z,6.03
2018-02-18T10:20:39.552Z,2.30
2018-02-18T10:23:07.905Z,4.10
2018-02-18T10:25:36.286Z,3.27
2018-02-18T10:28:04.660Z,3.53
2018-02-18T10:30:33.036Z,3.70
2018-02-18T10:33:01.405Z,3.70
2018-02-18T10:35:29.773Z,3.50
2018-02-18T10:37:58.189Z,3.27
2018-02-18T10:40:26.580Z,4.27
2018-02-18T10:42:54.947Z,2.47
2018-02-18T10:45:23.334Z,2.87
2018-02-18T10:47:51.696Z,5.80
2018-02-18T10:50:20.053Z,4.40
2018-02-18T10:52:48.432Z,3.90
2018-02-18T10:55:16.807Z,3.17
2018-02-18T10:57:45.193Z,4.90
2018-02-18T11:00:13.559Z,2.90
2018-02-18T11:02:41.958Z,2.90
2018-02-18T11:05:10.341Z,3.47
2018-02-18T11:07:38.707Z,3.60
2018-02-18T11:10:07.077Z,2.70
2018-02-18T11:12:35.477Z,2.83
2018-02-18T11:15:03.859Z,3.20
2018-02-18T11:17:32.233Z,3.20
2018-02-18T11:20:00.620Z,3.10
2018-02-18T11:22:28.989Z,4.47
2018-02-18T11:24:57.369Z,3.07
2018-02-18T11:27:25.988Z,3.43
2018-02-18T11:29:54.488Z,3.43
2018-02-18T11:32:22.872Z,3.63
2018-02-18T11:34:51.245Z,3.20
2018-02-18T11:37:20.016Z,4.40
2018-02-18T11:39:48.391Z,3.27
2018-02-18T11:42:16.770Z,3.50
2018-02-18T11:44:45.610Z,3.60
2018-02-18T11:47:13.977Z,3.53
2018-02-18T11:49:42.340Z,3.40
2018-02-18T11:52:11.107Z,3.27
2018-02-18T11:54:39.485Z,4.10
2018-02-18T11:57:07.884Z,3.33
2018-02-18T11:59:36.253Z,3.43
2018-02-18T12:02:05.025Z,3.40
2018-02-18T12:04:33.424Z,4.27
2018-02-18T12:07:02.218Z,4.50
2018-02-18T12:09:30.591Z,3.03
2018-02-18T12:11:59.361Z,3.30
2018-02-18T12:14:27.740Z,3.73
2018-02-18T12:16:56.119Z,3.20
2018-02-18T12:19:24.502Z,3.60
2018-02-18T12:21:52.928Z,3.17
2018-02-18T12:24:21.776Z,3.83
2018-02-18T12:26:50.560Z,3.60
2018-02-18T12:29:19.333Z,4.33
2018-02-18T12:31:47.877Z,3.30
2018-02-18T12:34:16.305Z,3.40
2018-02-18T12:36:44.668Z,3.03
2018-02-18T12:39:13.044Z,3.30
2018-02-18T12:41:41.405Z,3.17
2018-02-18T12:44:09.798Z,3.37
2018-02-18T12:46:38.165Z,3.13
2018-02-18T12:49:06.549Z,3.17
2018-02-18T12:51:34.917Z,3.60
2018-02-18T12:54:03.311Z,3.20
2018-02-18T12:56:31.692Z,3.93
2018-02-18T12:59:00.058Z,3.80
2018-02-18T13:01:28.571Z,3.37
2018-02-18T13:03:56.950Z,3.37
2018-02-18T13:06:25.316Z,4.17
2018-02-18T13:08:53.701Z,2.50
2018-02-18T13:11:22.059Z,3.30
2018-02-18T13:13:50.432Z,3.33
2018-02-18T13:16:18.806Z,3.00
2018-02-18T13:18:47.192Z,3.30
2018-02-18T13:21:15.553Z,3.43
2018-02-18T13:23:43.930Z,4.23
2018-02-18T13:26:12.297Z,4.30
2018-02-18T13:28:40.673Z,3.70
2018-02-18T13:31:09.038Z,4.63
2018-02-18T13:33:37.797Z,4.57
2018-02-18T13:36:06.145Z,4.43
2018-02-18T13:38:34.521Z,4.20
2018-02-18T13:41:02.873Z,4.97
2018-02-18T13:43:31.262Z,4.87
2018-02-18T13:45:59.650Z,4.80
2018-02-18T13:48:28.033Z,4.60
2018-02-18T13:50:56.387Z,4.83
2018-02-18T13:53:24.788Z,5.23
2018-02-18T13:55:53.157Z,4.80
2018-02-18T13:58:21.552Z,5.60
2018-02-18T14:00:49.917Z,5.87
2018-02-18T14:03:18.293Z,6.03
2018-02-18T14:05:46.661Z,5.07
2018-02-18T14:08:15.051Z,4.20
2018-02-18T14:10:43.449Z,5.20
2018-02-18T14:13:11.816Z,4.30
2018-02-18T14:15:40.173Z,4.00
2018-02-18T14:18:08.934Z,5.03
2018-02-18T14:20:37.288Z,4.93
2018-02-18T14:23:05.685Z,4.90
2018-02-18T14:25:34.050Z,4.27
2018-02-18T14:28:02.428Z,4.60
2018-02-18T14:30:30.787Z,4.40
2018-02-18T14:32:59.160Z,4.93
2018-02-18T14:35:27.520Z,3.83
2018-02-18T14:37:55.885Z,4.80
2018-02-18T14:40:24.652Z,3.57
2018-02-18T14:43:11.256Z,4.07
2018-02-18T14:45:57.317Z,3.50
2018-02-18T14:48:43.467Z,3.10
2018-02-18T14:51:30.240Z,4.63
2018-02-18T14:54:17.073Z,3.87
2018-02-18T14:56:55.026Z,4.20
2018-02-18T14:59:23.444Z,4.47
2018-02-18T15:01:51.816Z,4.17
2018-02-18T15:04:20.188Z,3.60
2018-02-18T15:06:48.585Z,3.60
2018-02-18T15:09:16.988Z,3.67
2018-02-18T15:11:45.364Z,3.80
2018-02-18T15:14:14.237Z,3.77
2018-02-18T15:16:42.616Z,4.27
2018-02-18T15:19:10.984Z,3.97
2018-02-18T15:21:39.337Z,3.60
2018-02-18T15:24:07.732Z,4.43
2018-02-18T15:26:36.111Z,3.00
2018-02-18T15:29:04.515Z,3.13
2018-02-18T15:31:33.277Z,3.07
2018-02-18T15:34:01.633Z,2.80
2018-02-18T15:36:29.996Z,3.90
2018-02-18T15:38:58.390Z,3.47
2018-02-18T15:41:26.758Z,3.60
2018-02-18T15:43:55.137Z,4.00
2018-02-18T15:46:23.495Z,4.13
2018-02-18T15:48:51.889Z,3.73
2018-02-18T15:51:20.252Z,3.67
2018-02-18T15:53:48.640Z,4.00
2018-02-18T15:56:17.021Z,4.70
2018-02-18T15:58:45.427Z,3.80
2018-02-18T16:01:13.783Z,4.20
2018-02-18T16:03:42.258Z,4.20
2018-02-18T16:06:10.783Z,4.33
2018-02-18T16:08:39.174Z,4.10
2018-02-18T16:11:07.541Z,5.67
2018-02-18T16:13:35.954Z,5.00
2018-02-18T16:16:04.729Z,4.60
2018-02-18T16:18:33.109Z,6.23
2018-02-18T16:21:01.491Z,6.73
2018-02-18T16:23:29.864Z,6.60
2018-02-18T16:25:58.424Z,6.20
2018-02-18T16:28:26.792Z,6.37
2018-02-18T16:30:55.166Z,8.67
2018-02-18T16:33:23.574Z,5.80
2018-02-18T16:35:51.948Z,5.90
2018-02-18T16:38:20.318Z,7.90
2018-02-18T16:40:48.697Z,8.00
2018-02-18T16:43:17.156Z,6.10
2018-02-18T16:45:45.485Z,5.07
2018-02-18T16:48:13.854Z,7.90
2018-02-18T16:50:42.221Z,10.07
2018-02-18T16:53:10.580Z,8.50
2018-02-18T16:55:38.972Z,7.03
2018-02-18T16:58:07.375Z,24.93
2018-02-18T17:00:35.745Z,7.37
2018-02-18T17:03:04.121Z,20.70
2018-02-18T17:05:32.486Z,8.83
2018-02-18T17:08:00.861Z,7.13
2018-02-18T17:10:29.220Z,5.60
2018-02-18T17:12:57.600Z,7.50
2018-02-18T17:15:25.966Z,8.53
2018-02-18T17:17:54.348Z,11.10
2018-02-18T17:20:22.707Z,8.60
2018-02-18T17:22:51.087Z,9.50
2018-02-18T17:25:19.836Z,7.20
2018-02-18T17:27:48.194Z,6.97
2018-02-18T17:30:16.549Z,7.40
2018-02-18T17:32:44.923Z,8.43
2018-02-18T17:35:13.283Z,6.27
2018-02-18T17:37:42.040Z,5.70
2018-02-18T17:40:10.439Z,5.23
2018-02-18T17:42:39.881Z,5.33
2018-02-18T17:45:08.244Z,5.53
2018-02-18T17:47:36.692Z,6.93
2018-02-18T17:50:05.080Z,6.83
2018-02-18T17:52:33.945Z,6.60
2018-02-18T17:55:02.296Z,5.27
2018-02-18T17:57:30.678Z,6.70
2018-02-18T17:59:59.035Z,6.77
2018-02-18T18:02:27.392Z,6.20
2018-02-18T18:04:56.145Z,6.33
2018-02-18T18:07:24.492Z,6.33
2018-02-18T18:09:52.856Z,6.03
2018-02-18T18:12:21.237Z,5.80
2018-02-18T18:14:49.660Z,5.73
2018-02-18T18:17:18.009Z,7.03
2018-02-18T18:19:46.392Z,5.57
2018-02-18T18:22:14.748Z,6.10
2018-02-18T18:24:43.112Z,6.20
2018-02-18T18:27:11.873Z,6.30
2018-02-18T18:29:40.245Z,6.17
2018-02-18T18:32:08.602Z,7.10
2018-02-18T18:34:37.044Z,6.33
2018-02-18T18:37:05.396Z,7.00
2018-02-18T18:39:33.753Z,6.80
2018-02-18T18:42:02.125Z,6.60
2018-02-18T18:44:30.482Z,5.77
2018-02-18T18:46:58.895Z,6.40
2018-02-18T18:49:27.262Z,6.17
2018-02-18T18:51:55.618Z,6.97
2018-02-18T18:54:23.991Z,8.03
2018-02-18T18:56:52.410Z,16.43
2018-02-18T18:59:21.201Z,9.00
2018-02-18T19:01:49.561Z,8.63
2018-02-18T19:04:17.937Z,7.80
2018-02-18T19:06:46.303Z,8.30
2018-02-18T19:09:14.690Z,7.00
2018-02-18T19:11:43.047Z,7.30
2018-02-18T19:14:12.269Z,6.17
2018-02-18T19:16:40.708Z,7.23
2018-02-18T19:19:09.471Z,6.90
2018-02-18T19:21:37.820Z,7.10
2018-02-18T19:24:06.178Z,7.23
2018-02-18T19:26:34.546Z,7.90
2018-02-18T19:29:02.912Z,7.60
2018-02-18T19:31:31.266Z,8.23
2018-02-18T19:33:59.635Z,8.00
2018-02-18T19:36:28.005Z,7.77
2018-02-18T19:38:56.376Z,7.47
2018-02-18T19:41:24.800Z,7.20
2018-02-18T19:43:53.607Z,7.20
2018-02-18T19:46:22.332Z,8.00
2018-02-18T19:48:50.713Z,7.90
2018-02-18T19:51:19.097Z,8.80
2018-02-18T19:53:47.462Z,8.00
2018-02-18T19:56:15.834Z,8.00
2018-02-18T19:58:44.193Z,7.00
2018-02-18T20:01:12.561Z,7.83
2018-02-18T20:03:41.053Z,7.93
2018-02-18T20:06:09.433Z,7.80
2018-02-18T20:08:37.822Z,7.70
2018-02-18T20:11:06.221Z,8.40
2018-02-18T20:13:34.583Z,7.53
2018-02-18T20:16:02.960Z,7.43
2018-02-18T20:18:31.342Z,7.60
2018-02-18T20:20:59.728Z,7.60
2018-02-18T20:23:28.096Z,7.07
2018-02-18T20:25:56.480Z,6.60
2018-02-18T20:28:24.854Z,7.83
2018-02-18T20:30:53.209Z,8.83
2018-02-18T20:33:21.594Z,7.97
2018-02-18T20:35:49.955Z,8.10
2018-02-18T20:38:18.709Z,9.03
2018-02-18T20:40:47.112Z,8.90
2018-02-18T20:43:15.869Z,7.97
2018-02-18T20:45:44.245Z,7.93
2018-02-18T20:48:12.627Z,7.63
2018-02-18T20:50:41.073Z,7.93
2018-02-18T20:53:09.429Z,8.50
2018-02-18T20:55:38.204Z,9.00
2018-02-18T20:58:06.954Z,9.50
2018-02-18T21:00:35.327Z,9.77
2018-02-18T21:03:03.697Z,9.93
2018-02-18T21:05:32.067Z,9.50
2018-02-18T21:08:00.446Z,9.60
2018-02-18T21:10:28.825Z,10.17
2018-02-18T21:12:57.189Z,10.80
2018-02-18T21:15:26.569Z,9.33
2018-02-18T21:17:55.329Z,11.57
2018-02-18T21:20:23.698Z,10.13
2018-02-18T21:22:52.073Z,9.67
2018-02-18T21:25:20.442Z,10.43
2018-02-18T21:27:48.798Z,10.40
2018-02-18T21:30:17.233Z,10.00
2018-02-18T21:32:45.688Z,10.97
2018-02-18T21:35:14.080Z,10.97
2018-02-18T21:37:42.444Z,10.37
2018-02-18T21:40:10.813Z,11.13
2018-02-18T21:42:39.180Z,10.90
2018-02-18T21:45:07.597Z,10.30
2018-02-18T21:47:35.956Z,9.90
2018-02-18T21:50:04.333Z,10.47
2018-02-18T21:52:32.697Z,10.90
2018-02-18T21:55:01.077Z,9.60
2018-02-18T21:57:29.433Z,11.13
2018-02-18T21:59:59.521Z,11.37
2018-02-18T22:02:27.898Z,12.30
2018-02-18T22:04:56.276Z,11.00
2018-02-18T22:07:24.654Z,10.97
2018-02-18T22:09:53.034Z,11.07
2018-02-18T22:12:21.425Z,10.10
2018-02-18T22:14:50.190Z,10.13
2018-02-18T22:17:18.567Z,10.10
2018-02-18T22:19:47.048Z,10.70
2018-02-18T22:22:15.424Z,11.00
2018-02-18T22:24:43.876Z,11.73
2018-02-18T22:27:12.249Z,11.10
2018-02-18T22:29:40.669Z,12.47
2018-02-18T22:32:09.035Z,12.07
2018-02-18T22:34:37.410Z,11.57
2018-02-18T22:37:05.778Z,10.83
2018-02-18T22:39:34.169Z,11.40
2018-02-18T22:42:02.525Z,11.60
2018-02-18T22:44:30.897Z,11.87
2018-02-18T22:46:59.441Z,11.47
2018-02-18T22:49:27.885Z,12.73
2018-02-18T22:51:56.348Z,10.90
2018-02-18T22:54:24.723Z,12.13
2018-02-18T22:56:53.105Z,11.90
2018-02-18T22:59:21.475Z,11.97
2018-02-18T23:01:49.836Z,12.17
2018-02-18T23:04:18.607Z,13.03
2018-02-18T23:06:47.384Z,10.70
2018-02-18T23:09:15.773Z,12.80
2018-02-18T23:11:44.280Z,11.33
2018-02-18T23:14:12.669Z,11.90
2018-02-18T23:16:41.055Z,12.27
2018-02-18T23:19:09.427Z,11.27
2018-02-18T23:21:37.792Z,10.80
2018-02-18T23:24:06.565Z,11.50
2018-02-18T23:26:35.321Z,12.67
2018-02-18T23:29:03.692Z,12.70
2018-02-18T23:31:32.050Z,11.70
2018-02-18T23:34:00.425Z,11.37
2018-02-18T23:36:28.793Z,10.50
2018-02-18T23:38:57.173Z,11.90
2018-02-18T23:41:25.525Z,12.50
2018-02-18T23:43:55.246Z,11.17
2018-02-18T23:46:23.616Z,11.67
2018-02-18T23:48:52.393Z,10.83
2018-02-18T23:51:20.759Z,11.93
2018-02-18T23:53:49.120Z,11.73
2018-02-18T23:56:17.472Z,10.97
2018-02-18T23:58:45.873Z,10.73
